YYE weather

Fort Nelson Airport
Fort Nelson, British Columbia, Canada

Public forecast

Using degrees Celsius for public forecast. Weather courtesy of forecast.io.

METAR (pilot weather report)

Retrieved 2019/08/23 23:00 UTC (2 minutes ago):

CYYE 232300Z 00000KT 30SM FEW060 BKN240 19/04 A2954 RMK CU1CI6 SLP012 DENSITY ALT 2500FT

TAF (pilot weather forecast)

Retrieved 2019/08/23 19:42 UTC (3 hours ago):

TAF CYYE 231838Z 2319/2407 VRB03KT P6SM FEW140 BKN230 RMK NXT FCST BY 240100Z